Time;durP1;ratioP1;P1;durP2;ratioP2;P2;SDS_P1;SDS_P2;PMS_P1;PMS_P2;Temp;Humidity;BMP_temperature;BMP_pressure;BME280_temperature;BME280_humidity;BME280_pressure;Samples;Min_cycle;Max_cycle;Signal;HPM_P1;HPM_P2
2022/12/14 00:00:02;;;;;;;0.00;0.00;;;;;;;0.64;74.61;99099.19;6133569;23;20009;-77
2022/12/14 00:02:27;;;;;;;0.10;0.10;;;;;;;0.52;74.86;99083.84;6156966;23;20339;-77
2022/12/14 00:04:53;;;;;;;0.03;0.03;;;;;;;0.51;75.11;99076.03;6159505;22;20005;-75
2022/12/14 00:07:18;;;;;;;0.10;0.10;;;;;;;0.58;75.37;99082.09;6154123;23;20028;-76
2022/12/14 00:09:45;;;;;;;0.03;0.03;;;;;;;0.58;75.22;99086.69;6157560;23;20490;-76
2022/12/14 00:12:13;;;;;;;0.00;0.00;;;;;;;0.57;75.27;99093.09;6157756;22;20016;-77
2022/12/14 00:14:39;;;;;;;0.00;0.00;;;;;;;0.48;74.94;99093.47;6157966;23;20004;-77
2022/12/14 00:17:04;;;;;;;0.00;0.00;;;;;;;0.25;75.71;99088.88;6158761;23;20013;-76
2022/12/14 00:19:29;;;;;;;0.00;0.00;;;;;;;0.00;75.46;99091.75;6151106;23;20099;-77
2022/12/14 00:21:55;;;;;;;0.00;0.00;;;;;;;-0.29;76.22;99072.72;6155067;23;20008;-78
2022/12/14 00:24:20;;;;;;;0.00;0.00;;;;;;;-0.53;76.55;99077.16;6174587;23;20782;-78
2022/12/14 00:26:46;;;;;;;0.00;0.00;;;;;;;-0.75;77.65;99074.13;6179488;22;20028;-77
2022/12/14 00:29:13;;;;;;;0.00;0.00;;;;;;;-0.75;78.44;99096.41;6124942;23;20019;-76
2022/12/14 00:31:39;;;;;;;0.00;0.00;;;;;;;-0.99;77.90;99068.63;6176688;23;20479;-78
2022/12/14 00:34:04;;;;;;;0.00;0.00;;;;;;;-0.93;78.13;99096.44;6155402;22;20039;-78
2022/12/14 00:36:30;;;;;;;0.10;0.10;;;;;;;-0.99;78.81;99090.09;6146242;23;20017;-77
2022/12/14 00:38:55;;;;;;;0.00;0.00;;;;;;;-1.06;79.13;99092.03;6153910;23;20025;-76
2022/12/14 00:41:21;;;;;;;0.10;0.10;;;;;;;-1.20;79.92;99077.09;6124740;23;20011;-77
2022/12/14 00:43:46;;;;;;;0.00;0.00;;;;;;;-1.11;80.33;99091.84;6190697;22;20117;-78
2022/12/14 00:46:12;;;;;;;0.10;0.10;;;;;;;-1.18;80.07;99085.75;6129827;23;20102;-75
2022/12/14 00:48:39;;;;;;;0.10;0.10;;;;;;;-1.17;80.41;99082.03;6173521;23;20000;-75
2022/12/14 00:51:05;;;;;;;0.00;0.00;;;;;;;-1.16;80.97;99089.03;6131301;23;20012;-73
2022/12/14 00:53:30;;;;;;;0.00;0.00;;;;;;;-1.09;80.74;99100.53;6176966;23;20072;-76
2022/12/14 00:55:55;;;;;;;0.00;0.00;;;;;;;-1.10;81.10;99098.88;6181447;23;20015;-77
2022/12/14 00:58:22;;;;;;;0.00;0.00;;;;;;;-1.08;81.42;99092.25;6151755;23;20013;-77
2022/12/14 01:00:58;;;;;;;0.00;0.00;;;;;;;-1.11;81.08;99087.34;6179773;23;20016;-76
2022/12/14 01:03:24;;;;;;;0.00;0.00;;;;;;;-1.01;80.76;99092.16;6205221;23;20105;-76
2022/12/14 01:05:50;;;;;;;0.00;0.00;;;;;;;-0.95;80.39;99096.66;6157644;23;20047;-76
2022/12/14 01:08:17;;;;;;;0.10;0.10;;;;;;;-0.98;80.59;99081.00;6157639;23;20004;-76
2022/12/14 01:10:43;;;;;;;0.00;0.00;;;;;;;-0.93;80.18;99094.56;6133000;23;20043;-75
2022/12/14 01:13:10;;;;;;;0.00;0.00;;;;;;;-0.84;80.20;99087.03;6134027;23;20008;-76
2022/12/14 01:15:35;;;;;;;0.00;0.00;;;;;;;-0.67;80.72;99103.38;6174720;23;20719;-76
2022/12/14 01:18:01;;;;;;;0.00;0.00;;;;;;;-0.57;79.96;99100.97;6178518;22;20005;-76
2022/12/14 01:20:26;;;;;;;0.00;0.00;;;;;;;-0.46;79.97;99090.50;6124835;23;20008;-76
2022/12/14 01:22:55;;;;;;;0.00;0.00;;;;;;;-0.40;79.97;99100.34;6155155;23;20546;-76
2022/12/14 01:25:21;;;;;;;0.10;0.10;;;;;;;-0.43;79.58;99092.75;6308758;22;20005;-76
2022/12/14 01:27:46;;;;;;;0.10;0.10;;;;;;;-0.42;79.50;99095.19;6148972;23;20012;-76
2022/12/14 01:30:12;;;;;;;0.00;0.00;;;;;;;-0.39;79.41;99099.31;6153913;23;20009;-77
2022/12/14 01:32:37;;;;;;;0.00;0.00;;;;;;;-0.50;78.72;99102.75;6172670;23;20438;-76
2022/12/14 01:35:03;;;;;;;0.10;0.10;;;;;;;-0.57;79.46;99106.34;6155231;23;20069;-76
2022/12/14 01:37:28;;;;;;;0.00;0.00;;;;;;;-0.62;79.82;99106.19;6202148;23;20028;-76
2022/12/14 01:39:54;;;;;;;0.05;0.05;;;;;;;-0.69;79.41;99108.13;6180093;23;20015;-76
2022/12/14 01:42:20;;;;;;;0.00;0.00;;;;;;;-0.76;79.55;99113.59;6155456;22;20015;-75
2022/12/14 01:44:53;;;;;;;0.10;0.10;;;;;;;-0.82;80.12;99111.78;6125953;22;20023;-76
2022/12/14 01:47:25;;;;;;;0.10;0.10;;;;;;;-0.88;80.01;99118.88;6176982;23;20008;-77
2022/12/14 01:50:01;;;;;;;0.00;0.00;;;;;;;-0.90;79.76;99115.59;6177104;23;20004;-77
2022/12/14 01:52:34;;;;;;;0.00;0.00;;;;;;;-0.96;79.99;99118.34;6180456;23;20411;-77
2022/12/14 01:55:23;;;;;;;0.10;0.10;;;;;;;-1.08;80.25;99112.88;6174720;22;20301;-76
2022/12/14 01:58:08;;;;;;;0.10;0.10;;;;;;;-1.09;81.13;99119.31;6180028;23;20004;-77
2022/12/14 02:00:34;;;;;;;0.00;0.00;;;;;;;-1.16;80.28;99111.31;6201594;23;20005;-76
2022/12/14 02:03:25;;;;;;;0.00;0.00;;;;;;;-1.19;80.33;99121.69;6130829;23;20031;-76
2022/12/14 02:05:58;;;;;;;0.00;0.00;;;;;;;-1.26;81.20;99125.22;6208538;23;20747;-77
2022/12/14 02:08:25;;;;;;;0.00;0.00;;;;;;;-1.36;81.00;99122.22;6178183;23;20000;-76
2022/12/14 02:10:52;;;;;;;0.05;0.05;;;;;;;-1.46;81.04;99117.38;6129747;23;20009;-76
2022/12/14 02:13:27;;;;;;;0.00;0.00;;;;;;;-1.51;81.97;99111.03;6158013;23;20036;-77
2022/12/14 02:15:53;;;;;;;0.00;0.00;;;;;;;-1.61;81.60;99115.03;6174354;22;20008;-76
2022/12/14 02:18:22;;;;;;;0.00;0.00;;;;;;;-1.75;81.83;99100.06;6181559;22;20446;-77
2022/12/14 02:21:06;;;;;;;0.10;0.10;;;;;;;-1.70;83.20;99121.69;6171183;23;20406;-76
2022/12/14 02:23:50;;;;;;;0.00;0.00;;;;;;;-1.73;82.71;99116.75;6207663;23;20005;-77
2022/12/14 02:26:43;;;;;;;0.10;0.10;;;;;;;-1.76;83.37;99117.19;6179075;23;20000;-76
2022/12/14 02:29:23;;;;;;;0.03;0.03;;;;;;;-1.83;83.59;99114.53;6175097;22;20672;-77
2022/12/14 02:32:08;;;;;;;0.00;0.00;;;;;;;-1.74;83.43;99120.47;6177986;23;20435;-77
2022/12/14 02:35:02;;;;;;;0.00;0.00;;;;;;;-1.68;84.08;99114.25;6176107;23;20061;-76
2022/12/14 02:37:42;;;;;;;0.00;0.00;;;;;;;-1.67;83.26;99107.03;6202686;22;20442;-77
2022/12/14 02:40:46;;;;;;;0.00;0.00;;;;;;;-1.58;82.92;99119.94;6181875;23;20087;-77
2022/12/14 02:43:23;;;;;;;0.00;0.00;;;;;;;-1.60;83.82;99105.91;6175769;22;20123;-77
2022/12/14 02:46:12;;;;;;;0.00;0.00;;;;;;;-1.52;83.24;99117.41;6179933;22;20016;-76
2022/12/14 02:49:21;;;;;;;0.00;0.00;;;;;;;-1.50;83.65;99110.00;6206558;23;20336;-76
2022/12/14 02:52:18;;;;;;;0.00;0.00;;;;;;;-1.50;82.78;99116.16;6161961;23;20012;-76
2022/12/14 02:54:52;;;;;;;0.00;0.00;;;;;;;-1.59;83.68;99098.72;6174967;23;20312;-77
2022/12/14 02:57:24;;;;;;;0.00;0.00;;;;;;;-1.58;83.11;99109.22;6179948;23;20021;-77
2022/12/14 02:59:54;;;;;;;0.00;0.00;;;;;;;-1.58;83.12;99114.59;6309454;22;20004;-77
2022/12/14 03:02:20;;;;;;;0.00;0.00;;;;;;;-1.64;83.39;99099.34;6180857;23;20495;-77
2022/12/14 03:04:49;;;;;;;0.05;0.05;;;;;;;-1.63;83.70;99109.03;6156679;23;20017;-76
2022/12/14 03:07:32;;;;;;;0.08;0.08;;;;;;;-1.59;84.52;99107.56;6152072;23;20038;-77
2022/12/14 03:10:39;;;;;;;0.00;0.00;;;;;;;-1.62;83.92;99118.72;6180688;23;20012;-76
2022/12/14 03:13:20;;;;;;;0.00;0.00;;;;;;;-1.59;83.95;99120.97;6187167;22;20492;-76
2022/12/14 03:15:54;;;;;;;0.00;0.00;;;;;;;-1.60;84.04;99124.69;6205619;23;20000;-77
2022/12/14 03:18:23;;;;;;;0.00;0.00;;;;;;;-1.65;83.95;99118.34;6181000;22;20074;-76
2022/12/14 03:20:52;;;;;;;0.10;0.10;;;;;;;-1.67;84.32;99112.38;6178170;23;20009;-76
2022/12/14 03:23:23;;;;;;;0.10;0.10;;;;;;;-1.67;84.70;99115.06;6180739;23;20095;-76
2022/12/14 03:25:57;;;;;;;0.00;0.00;;;;;;;-1.69;84.36;99107.25;6179260;23;20008;-75
2022/12/14 03:28:49;;;;;;;0.10;0.10;;;;;;;-1.67;84.78;99115.06;6182620;23;20007;-76
2022/12/14 03:31:28;;;;;;;0.00;0.00;;;;;;;-1.73;84.89;99103.34;6194884;23;20016;-76
2022/12/14 03:33:57;;;;;;;0.00;0.00;;;;;;;-1.78;84.99;99100.50;6179744;23;20103;-76
2022/12/14 03:36:49;;;;;;;0.00;0.00;;;;;;;-1.88;85.02;99097.47;6181231;23;20005;-77
2022/12/14 03:39:25;;;;;;;0.10;0.10;;;;;;;-1.97;85.82;99094.22;6180480;23;20020;-76
2022/12/14 03:42:03;;;;;;;0.00;0.00;;;;;;;-1.98;85.09;99098.78;6205565;23;20006;-77
2022/12/14 03:44:54;;;;;;;0.00;0.00;;;;;;;-1.95;85.34;99109.06;6173860;22;20412;-76
2022/12/14 03:47:53;;;;;;;0.05;0.05;;;;;;;-1.91;86.58;99100.59;6180658;23;20057;-77
2022/12/14 03:50:41;;;;;;;0.00;0.00;;;;;;;-1.82;86.66;99099.31;6204926;23;20077;-76
2022/12/14 03:53:20;;;;;;;0.00;0.00;;;;;;;-1.78;85.45;99104.00;6203650;23;20005;-78
2022/12/14 03:56:13;;;;;;;0.00;0.00;;;;;;;-1.70;86.25;99105.59;6180486;23;20004;-77
2022/12/14 03:59:02;;;;;;;0.00;0.00;;;;;;;-1.62;86.70;99096.44;6182622;22;20008;-76
2022/12/14 04:02:02;;;;;;;0.00;0.00;;;;;;;-1.58;86.25;99103.03;6180708;22;20005;-75
2022/12/14 04:04:27;;;;;;;0.00;0.00;;;;;;;-1.55;86.04;99097.22;6183145;22;20442;-77
2022/12/14 04:07:03;;;;;;;0.00;0.00;;;;;;;-1.58;85.75;99098.50;6176628;23;20004;-76
2022/12/14 04:09:41;;;;;;;0.00;0.00;;;;;;;-1.63;85.84;99101.00;6208716;22;20004;-77
2022/12/14 04:20:47;;;;;;;0.00;0.00;;;;;;;-1.62;85.24;99113.38;6206826;23;20022;-76
2022/12/14 04:26:03;;;;;;;0.00;0.00;;;;;;;-1.70;85.61;99104.78;6204683;23;20498;-76
2022/12/14 04:26:14;;;;;;;0.00;0.00;;;;;;;-1.77;85.53;99112.84;6196591;22;20004;-76
2022/12/14 04:32:13;;;;;;;0.08;0.08;;;;;;;-1.86;86.12;99111.50;6204092;23;20059;-77
2022/12/14 04:34:41;;;;;;;0.10;0.10;;;;;;;-1.91;86.02;99125.53;6179235;23;20061;-76
2022/12/14 04:37:12;;;;;;;0.00;0.00;;;;;;;-2.02;86.66;99116.31;6175655;22;20211;-75
2022/12/14 04:40:10;;;;;;;0.00;0.00;;;;;;;-2.07;86.54;99113.47;6181052;22;20036;-76
2022/12/14 04:42:46;;;;;;;0.00;0.00;;;;;;;-2.06;87.09;99120.47;6180164;23;20423;-76
2022/12/14 04:45:29;;;;;;;0.10;0.10;;;;;;;-2.11;86.87;99110.41;6280827;22;20020;-75
2022/12/14 04:48:20;;;;;;;0.00;0.00;;;;;;;-2.07;87.11;99132.25;6281469;22;20002;-77
2022/12/14 04:50:52;;;;;;;0.00;0.00;;;;;;;-2.12;86.70;99129.38;6279920;22;20013;-77
2022/12/14 04:53:24;;;;;;;0.10;0.10;;;;;;;-2.16;87.34;99133.50;6275028;22;20092;-77
2022/12/14 04:55:59;;;;;;;0.10;0.10;;;;;;;-2.20;86.94;99127.78;6280096;22;20011;-77
2022/12/14 04:58:27;;;;;;;0.00;0.00;;;;;;;-2.28;86.60;99136.88;6275815;22;20032;-77
2022/12/14 05:01:21;;;;;;;0.10;0.10;;;;;;;-2.44;87.17;99121.28;6279997;22;20065;-76
2022/12/14 05:04:13;;;;;;;0.00;0.00;;;;;;;-2.53;87.52;99127.91;6283676;22;20134;-78
2022/12/14 05:07:10;;;;;;;0.10;0.10;;;;;;;-2.69;87.83;99124.66;6279557;22;20005;-77
2022/12/14 05:10:26;;;;;;;0.10;0.10;;;;;;;-2.91;87.92;99120.66;6281098;22;20032;-78
2022/12/14 05:13:23;;;;;;;0.00;0.00;;;;;;;-3.10;88.57;99101.75;6227755;22;20005;-80
2022/12/14 05:15:56;;;;;;;0.10;0.10;;;;;;;-3.14;89.85;99121.09;6180467;22;20009;-78
2022/12/14 05:18:22;;;;;;;0.10;0.10;;;;;;;-3.24;90.38;99118.84;6282712;22;20439;-78
2022/12/14 05:20:48;;;;;;;0.10;0.10;;;;;;;-3.30;90.34;99120.53;6283612;22;20009;-76
2022/12/14 05:23:15;;;;;;;0.10;0.10;;;;;;;-3.33;90.17;99128.94;6180455;22;20027;-77
2022/12/14 05:25:43;;;;;;;0.00;0.00;;;;;;;-3.47;91.12;99101.41;6281950;22;20024;-78
2022/12/14 05:28:10;;;;;;;0.00;0.00;;;;;;;-3.40;91.62;99125.44;6282746;22;20035;-78
2022/12/14 05:30:35;;;;;;;0.00;0.00;;;;;;;-3.53;92.01;99107.59;6177180;22;20005;-77
2022/12/14 05:33:03;;;;;;;0.00;0.00;;;;;;;-3.60;91.47;99094.22;6281315;22;20012;-77
2022/12/14 05:35:29;;;;;;;0.00;0.00;;;;;;;-3.49;92.63;99114.13;6279678;22;20008;-78
2022/12/14 05:37:54;;;;;;;0.10;0.10;;;;;;;-3.60;92.66;99104.91;6280166;22;20469;-78
2022/12/14 05:40:20;;;;;;;0.10;0.10;;;;;;;-3.57;93.15;99111.69;6255336;22;20439;-78
2022/12/14 05:42:48;;;;;;;0.00;0.00;;;;;;;-3.60;93.63;99106.75;6280104;22;20009;-79
2022/12/14 05:45:16;;;;;;;0.00;0.00;;;;;;;-3.63;92.97;99108.00;6167475;22;20024;-78
2022/12/14 05:47:41;;;;;;;0.00;0.00;;;;;;;-3.63;93.50;99107.19;6207064;22;20083;-79
2022/12/14 05:50:07;;;;;;;0.00;0.00;;;;;;;-3.52;94.25;99125.25;6181876;22;20348;-79
2022/12/14 05:52:36;;;;;;;0.00;0.00;;;;;;;-3.65;93.82;99114.56;6157715;22;20435;-78
2022/12/14 05:55:01;;;;;;;0.00;0.00;;;;;;;-3.62;93.55;99124.84;6180173;22;20008;-78
2022/12/14 05:57:29;;;;;;;0.00;0.00;;;;;;;-3.70;94.29;99134.69;6158768;22;20488;-79
2022/12/14 05:59:55;;;;;;;0.00;0.00;;;;;;;-3.76;94.23;99130.19;6156334;23;20042;-77
2022/12/14 06:02:23;;;;;;;0.10;0.10;;;;;;;-3.69;94.65;99146.22;6181708;23;20047;-77
2022/12/14 06:04:48;;;;;;;0.10;0.10;;;;;;;-3.71;94.56;99142.91;6180891;22;20332;-77
2022/12/14 06:07:14;;;;;;;0.10;0.10;;;;;;;-3.77;94.61;99147.22;6159592;23;20023;-78
2022/12/14 06:09:47;;;;;;;0.10;0.10;;;;;;;-3.86;94.23;99135.91;6160351;23;20012;-77
2022/12/14 06:12:12;;;;;;;0.00;0.00;;;;;;;-3.88;94.54;99139.84;6210362;23;20015;-78
2022/12/14 06:14:57;;;;;;;0.10;0.10;;;;;;;-3.89;95.51;99146.19;6134648;23;20104;-78
2022/12/14 06:17:22;;;;;;;0.10;0.10;;;;;;;-3.83;94.97;99164.06;6164121;23;20012;-77
2022/12/14 06:19:47;;;;;;;0.00;0.00;;;;;;;-3.76;94.90;99172.13;6159065;23;20017;-78
2022/12/14 06:22:13;;;;;;;0.00;0.00;;;;;;;-3.86;95.85;99159.94;6205667;23;20446;-78
2022/12/14 06:24:45;;;;;;;0.10;0.10;;;;;;;-3.81;95.49;99167.38;6209356;23;20005;-78
2022/12/14 06:27:21;;;;;;;;;;;;;;;;;;;;;
2022/12/14 06:29:46;;;;;;;0.00;0.00;;;;;;;-3.85;95.45;99158.13;6186039;23;20072;-77
2022/12/14 06:32:12;;;;;;;0.00;0.00;;;;;;;-3.70;96.32;99185.47;6180140;23;20328;-78
2022/12/14 06:34:37;;;;;;;0.10;0.10;;;;;;;-3.84;96.40;99162.44;6156917;22;20331;-77
2022/12/14 06:37:06;;;;;;;0.10;0.10;;;;;;;-3.76;96.74;99188.16;6126753;23;20036;-77
2022/12/14 06:39:32;;;;;;;0.00;0.00;;;;;;;-3.84;96.30;99173.13;6180277;23;20016;-77
2022/12/14 06:41:57;;;;;;;0.08;0.08;;;;;;;-3.88;96.11;99170.03;6208731;22;20005;-77
2022/12/14 06:44:27;;;;;;;0.00;0.00;;;;;;;-3.88;96.65;99169.22;6220842;22;20013;-77
2022/12/14 06:46:52;;;;;;;0.10;0.10;;;;;;;-3.87;96.60;99170.84;6255063;22;20028;-77
2022/12/14 06:49:18;;;;;;;0.10;0.10;;;;;;;-3.84;97.80;99173.13;6279225;22;20009;-77
2022/12/14 06:51:43;;;;;;;0.00;0.00;;;;;;;-3.83;97.53;99179.28;6276218;22;20080;-77
2022/12/14 06:54:27;;;;;;;0.10;0.10;;;;;;;-3.88;97.02;99185.25;6280781;22;20005;-77
2022/12/14 06:56:52;;;;;;;0.10;0.10;;;;;;;-3.77;97.62;99189.16;6278076;22;20005;-77
2022/12/14 06:59:22;;;;;;;0.00;0.00;;;;;;;-3.79;97.29;99188.56;6178667;22;20672;-77
2022/12/14 07:01:49;;;;;;;0.00;0.00;;;;;;;-3.94;97.75;99172.69;6277851;22;20498;-76
2022/12/14 07:04:17;;;;;;;0.00;0.00;;;;;;;-3.93;97.27;99169.00;6280740;22;20009;-77
2022/12/14 07:06:45;;;;;;;0.00;0.00;;;;;;;-3.98;97.38;99172.28;6277294;22;20497;-77
2022/12/14 07:09:14;;;;;;;0.10;0.10;;;;;;;-3.98;97.62;99174.13;6252978;22;20008;-77
2022/12/14 07:11:41;;;;;;;0.00;0.00;;;;;;;-3.98;97.96;99174.13;6253085;22;20012;-77
2022/12/14 07:14:23;;;;;;;0.00;0.00;;;;;;;-3.97;97.63;99175.75;6280698;22;20009;-77
2022/12/14 07:16:49;;;;;;;0.03;0.03;;;;;;;-3.91;97.51;99197.16;6274390;22;20008;-78
2022/12/14 07:19:17;;;;;;;0.10;0.10;;;;;;;-3.92;97.63;99194.69;6253485;22;20016;-76
2022/12/14 07:21:47;;;;;;;0.00;0.00;;;;;;;-4.01;98.02;99185.22;6174629;22;20374;-77
2022/12/14 07:24:18;;;;;;;0.00;0.00;;;;;;;-4.00;97.58;99192.19;6257031;22;20013;-77
2022/12/14 07:26:43;;;;;;;0.10;0.10;;;;;;;-4.03;98.51;99194.25;6256101;22;20087;-76
2022/12/14 07:29:13;;;;;;;0.10;0.10;;;;;;;-4.00;98.23;99193.03;6228228;22;20409;-75
2022/12/14 07:31:44;;;;;;;0.00;0.00;;;;;;;-4.00;98.58;99198.38;6275670;22;20759;-77
2022/12/14 07:34:13;;;;;;;0.00;0.00;;;;;;;-3.97;98.54;99208.66;6249534;22;20093;-79
2022/12/14 07:36:39;;;;;;;0.05;0.05;;;;;;;-4.10;98.57;99188.06;6253464;22;20062;-78
2022/12/14 07:39:04;;;;;;;0.00;0.00;;;;;;;-3.99;98.18;99199.19;6251521;22;20005;-79
2022/12/14 07:41:32;;;;;;;0.00;0.00;;;;;;;-3.98;97.95;99214.19;6279579;22;20055;-76
2022/12/14 07:44:07;;;;;;;0.03;0.03;;;;;;;-4.05;98.05;99206.97;6274516;22;20305;-77
2022/12/14 07:46:32;;;;;;;0.10;0.10;;;;;;;-3.97;98.91;99218.47;6278457;22;20009;-77
2022/12/14 07:48:59;;;;;;;0.10;0.10;;;;;;;-4.02;98.12;99208.41;6224842;22;20019;-76
2022/12/14 07:51:32;;;;;;;0.10;0.10;;;;;;;-3.90;97.93;99224.66;6273806;22;20032;-77
2022/12/14 07:54:03;;;;;;;0.00;0.00;;;;;;;-4.10;97.75;99197.94;6280943;22;20031;-77
2022/12/14 07:56:31;;;;;;;0.00;0.00;;;;;;;-4.06;98.28;99210.69;6171790;22;20048;-79
2022/12/14 07:58:58;;;;;;;0.00;0.00;;;;;;;-4.05;97.52;99206.97;6280894;22;20068;-78
2022/12/14 08:01:26;;;;;;;0.10;0.10;;;;;;;-3.89;97.85;99231.66;6274366;22;20017;-79
2022/12/14 08:04:05;;;;;;;0.08;0.08;;;;;;;-3.95;98.30;99219.13;6277076;22;20009;-76
2022/12/14 08:06:41;;;;;;;0.10;0.10;;;;;;;-3.93;97.64;99235.75;6281418;22;20005;-76
2022/12/14 08:09:24;;;;;;;0.10;0.10;;;;;;;-3.90;97.33;99232.69;6276544;22;20008;-76
2022/12/14 08:12:20;;;;;;;;;;;;;;;;;;;;;
2022/12/14 08:14:57;;;;;;;0.10;0.10;;;;;;;-4.04;98.10;99202.47;6268313;22;20083;-77
2022/12/14 08:17:40;;;;;;;0.00;0.00;;;;;;;-3.94;97.26;99218.09;6282745;22;20428;-76
2022/12/14 08:20:06;;;;;;;0.10;0.10;;;;;;;-3.81;97.55;99236.84;6278040;22;20017;-77
2022/12/14 08:22:31;;;;;;;0.00;0.00;;;;;;;-3.66;97.64;99246.50;6281356;22;20009;-77
2022/12/14 08:25:06;;;;;;;0.00;0.00;;;;;;;-3.58;97.47;99252.50;6259532;22;20016;-79
2022/12/14 08:27:31;;;;;;;0.00;0.00;;;;;;;-3.58;96.66;99249.00;6285112;22;20029;-77
2022/12/14 08:30:02;;;;;;;0.00;0.00;;;;;;;-3.48;96.10;99265.47;6284822;22;20012;-77
2022/12/14 08:32:27;;;;;;;0.10;0.10;;;;;;;-3.41;95.63;99270.84;6281486;22;20033;-77
2022/12/14 08:34:52;;;;;;;0.00;0.00;;;;;;;-3.46;95.29;99258.09;6283454;22;20349;-77
2022/12/14 08:37:20;;;;;;;0.10;0.10;;;;;;;-3.43;95.66;99256.84;6284094;22;20344;-77
2022/12/14 08:39:46;;;;;;;0.10;0.10;;;;;;;-3.25;94.78;99269.63;6284611;22;20024;-76
2022/12/14 08:42:11;;;;;;;0.00;0.00;;;;;;;-3.09;94.84;99268.41;6283687;22;20354;-77
2022/12/14 08:44:36;;;;;;;0.00;0.00;;;;;;;-2.83;94.95;99272.94;6181116;22;20040;-76
2022/12/14 08:47:02;;;;;;;0.08;0.08;;;;;;;-2.71;93.49;99273.94;6285003;22;20343;-77
2022/12/14 08:49:50;;;;;;;0.10;0.10;;;;;;;-2.51;92.60;99281.13;6180150;22;20009;-77
2022/12/14 08:52:22;;;;;;;0.00;0.00;;;;;;;-2.52;92.19;99282.16;6260425;22;20066;-77
2022/12/14 08:54:50;;;;;;;0.00;0.00;;;;;;;-2.41;91.35;99294.91;6282756;22;19997;-77
2022/12/14 08:57:16;;;;;;;0.10;0.10;;;;;;;-2.41;89.69;99286.88;6283398;22;20055;-77
2022/12/14 09:00:00;;;;;;;0.00;0.00;;;;;;;-2.47;89.73;99287.69;6255557;22;20013;-78
2022/12/14 09:03:09;;;;;;;0.00;0.00;;;;;;;-2.39;89.22;99290.16;6263066;22;20021;-78
2022/12/14 09:05:40;;;;;;;0.00;0.00;;;;;;;-2.20;89.55;99309.09;6217015;23;20031;-76
2022/12/14 09:11:46;;;;;;;;;;;;;;;;;;;;;
2022/12/14 09:14:50;;;;;;;;;;;;;;;;;;;;;
2022/12/14 09:17:57;;;;;;;0.10;0.10;;;;;;;-1.87;86.99;99271.47;6207064;23;19995;-78
2022/12/14 09:21:01;;;;;;;0.00;0.00;;;;;;;-1.66;85.69;99289.09;6185596;23;20091;-78
2022/12/14 09:24:00;;;;;;;;;;;;;;;;;;;;;
2022/12/14 09:27:04;;;;;;;;;;;;;;;;;;;;;
2022/12/14 09:30:26;;;;;;;;;;;;;;;;;;;;;
2022/12/14 09:36:41;;;;;;;0.00;0.00;;;;;;;-0.07;80.81;99314.09;6249784;22;20329;-78
2022/12/14 09:46:42;;;;;;;;;;;;;;;;;;;;;
2022/12/14 09:50:48;;;;;;;0.00;0.00;;;;;;;3.35;68.38;99300.81;6171169;22;20096;-77
2022/12/14 09:56:36;;;;;;;0.00;0.00;;;;;;;4.64;61.11;99304.13;6159932;22;20388;-77
2022/12/14 09:59:51;;;;;;;;;;;;;;;;;;;;;
2022/12/14 10:03:28;;;;;;;;;;;;;;;;;;;;;
2022/12/14 10:09:33;;;;;;;0.00;0.00;;;;;;;3.16;64.99;99346.16;6177606;22;20083;-77
2022/12/14 10:12:16;;;;;;;0.10;0.10;;;;;;;3.83;63.92;99339.91;6152853;22;20095;-78
2022/12/14 10:15:39;;;;;;;;;;;;;;;;;;;;;
2022/12/14 10:18:21;;;;;;;;;;;;;;;;;;;;;
2022/12/14 10:21:28;;;;;;;;;;;;;;;;;;;;;
2022/12/14 10:24:20;;;;;;;0.00;0.00;;;;;;;5.66;56.36;99349.50;6157649;22;20092;-77
2022/12/14 10:30:18;;;;;;;0.10;0.10;;;;;;;4.21;58.80;99345.59;6147989;23;20015;-77
2022/12/14 10:33:35;;;;;;;0.00;0.00;;;;;;;4.21;60.04;99346.41;6157617;23;20331;-79
2022/12/14 10:40:21;;;;;;;;;;;;;;;;;;;;;
2022/12/14 10:43:10;;;;;;;0.00;0.00;;;;;;;3.22;62.04;99351.38;6120323;23;20517;-78
2022/12/14 10:49:17;;;;;;;0.08;0.08;;;;;;;3.00;63.35;99380.16;6320551;22;20164;-77
2022/12/14 10:52:30;;;;;;;0.00;0.00;;;;;;;2.73;63.32;99342.91;6311507;22;20013;-78
2022/12/14 10:55:30;;;;;;;;;;;;;;;;;;;;;
2022/12/14 11:02:00;;;;;;;0.00;0.00;;;;;;;3.37;62.44;99368.91;6196183;22;20470;-78
2022/12/14 11:05:05;;;;;;;0.10;0.10;;;;;;;2.99;61.96;99338.00;6309085;22;20060;-78
2022/12/14 11:07:44;;;;;;;0.00;0.00;;;;;;;3.15;62.74;99353.41;6192655;22;20494;-79
2022/12/14 11:10:35;;;;;;;0.00;0.00;;;;;;;3.43;62.56;99381.44;6182612;22;20001;-78
2022/12/14 11:13:16;;;;;;;0.03;0.03;;;;;;;3.68;60.20;99375.66;6286064;22;20009;-77
2022/12/14 11:16:08;;;;;;;0.08;0.08;;;;;;;3.54;60.53;99364.34;6310829;22;20013;-77
2022/12/14 11:18:57;;;;;;;0.00;0.00;;;;;;;3.59;59.87;99377.97;6336379;22;19994;-77
2022/12/14 11:22:19;;;;;;;0.00;0.00;;;;;;;3.37;60.97;99358.13;6338729;22;20007;-78
2022/12/14 11:32:18;;;;;;;0.00;0.00;;;;;;;3.39;60.76;99334.34;6123152;23;20315;-77
2022/12/14 11:35:11;;;;;;;0.00;0.00;;;;;;;3.73;59.81;99356.81;6093303;23;20086;-78
2022/12/14 11:37:40;;;;;;;0.00;0.00;;;;;;;4.18;59.91;99357.72;6077108;23;20012;-78
2022/12/14 11:47:10;;;;;;;0.10;0.10;;;;;;;4.76;57.32;99374.44;6210256;22;20066;-79
2022/12/14 12:00:55;;;;;;;;;;;;;;;;;;;;;
2022/12/14 12:10:57;;;;;;;0.00;0.00;;;;;;;8.21;50.26;99370.59;6000861;23;20022;-77
2022/12/14 12:16:57;;;;;;;;;;;;;;;;;;;;;
2022/12/14 12:20:09;;;;;;;0.00;0.00;;;;;;;13.56;38.35;99388.38;6161528;23;20076;-77
2022/12/14 12:23:45;;;;;;;0.00;0.00;;;;;;;13.35;37.79;99368.84;6182287;23;20060;-78
2022/12/14 12:29:16;;;;;;;0.00;0.00;;;;;;;10.41;39.68;99386.66;6157305;22;20302;-76
2022/12/14 12:32:28;;;;;;;;;;;;;;;;;;;;;
2022/12/14 12:35:25;;;;;;;0.00;0.00;;;;;;;9.79;42.76;99383.66;6208349;22;20075;-78
2022/12/14 12:41:59;;;;;;;0.08;0.08;;;;;;;8.51;45.00;99383.34;6188130;23;20440;-76
2022/12/14 12:44:53;;;;;;;0.00;0.00;;;;;;;9.52;44.86;99387.72;6160413;23;20081;-79
2022/12/14 12:47:59;;;;;;;0.00;0.00;;;;;;;12.40;40.11;99392.19;6195971;22;20882;-76
2022/12/14 12:50:28;;;;;;;;;;;;;;;13.16;39.12;99390.13;6090480;23;20014;-76
2022/12/14 12:52:59;;;;;;;0.00;0.00;;;;;;;13.82;36.14;99384.22;6205499;22;19911;-77
2022/12/14 12:55:27;;;;;;;0.00;0.00;;;;;;;15.25;35.55;99397.91;6176352;22;20012;-76
2022/12/14 12:57:57;;;;;;;0.00;0.00;;;;;;;16.32;33.82;99384.50;6177636;22;20001;-77
2022/12/14 13:00:28;;;;;;;0.00;0.00;;;;;;;16.34;32.24;99371.19;6156371;23;20137;-78
2022/12/14 13:03:09;;;;;;;0.00;0.00;;;;;;;15.38;33.15;99388.69;6177552;22;20005;-77
2022/12/14 13:05:39;;;;;;;0.00;0.00;;;;;;;15.12;33.93;99381.19;6180478;22;20011;-78
2022/12/14 13:08:12;;;;;;;0.00;0.00;;;;;;;14.35;32.76;99386.09;6206660;23;20027;-78
2022/12/14 13:10:40;;;;;;;0.00;0.00;;;;;;;13.49;34.30;99390.78;6205905;23;20028;-77
2022/12/14 13:13:12;;;;;;;0.00;0.00;;;;;;;12.16;35.83;99380.59;6176110;22;20008;-77
2022/12/14 13:16:04;;;;;;;0.00;0.00;;;;;;;11.75;37.48;99365.63;6206383;23;20427;-78
2022/12/14 13:18:41;;;;;;;0.00;0.00;;;;;;;11.12;37.99;99380.56;6176290;23;20126;-77
2022/12/14 13:21:30;;;;;;;0.00;0.00;;;;;;;11.39;38.74;99379.09;6207131;22;20005;-78
2022/12/14 13:23:56;;;;;;;0.00;0.00;;;;;;;11.29;37.83;99378.13;6179869;23;20012;-77
2022/12/14 13:26:36;;;;;;;0.00;0.00;;;;;;;11.01;37.89;99396.31;6156007;23;20008;-78
2022/12/14 13:29:16;;;;;;;0.00;0.00;;;;;;;10.84;39.35;99391.34;6206525;23;19996;-77
2022/12/14 13:32:04;;;;;;;0.00;0.00;;;;;;;10.62;39.28;99405.56;6204844;23;20042;-77
2022/12/14 13:34:47;;;;;;;0.00;0.00;;;;;;;10.44;39.63;99416.13;6207331;23;20001;-77
2022/12/14 13:37:41;;;;;;;0.00;0.00;;;;;;;9.84;39.91;99404.66;6178189;23;20047;-78
2022/12/14 13:40:24;;;;;;;0.00;0.00;;;;;;;9.05;41.11;99400.00;6206114;23;20009;-77
2022/12/14 13:43:18;;;;;;;0.00;0.00;;;;;;;8.43;41.98;99413.03;6181093;23;20015;-78
2022/12/14 13:45:47;;;;;;;0.00;0.00;;;;;;;8.00;43.07;99384.25;6204315;22;20016;-78
2022/12/14 13:48:22;;;;;;;0.00;0.00;;;;;;;7.56;43.76;99383.97;6177199;22;20023;-78
2022/12/14 13:50:56;;;;;;;0.03;0.03;;;;;;;7.38;43.96;99393.50;6177994;22;20001;-78
2022/12/14 13:53:45;;;;;;;0.00;0.00;;;;;;;7.34;44.81;99417.69;6180129;22;20047;-77
2022/12/14 13:56:24;;;;;;;0.00;0.00;;;;;;;7.18;44.80;99410.59;6161930;22;20088;-77
2022/12/14 13:58:58;;;;;;;0.00;0.00;;;;;;;7.18;45.17;99399.72;6176033;22;20100;-78
2022/12/14 14:01:39;;;;;;;0.00;0.00;;;;;;;7.57;45.10;99412.84;6206738;23;20009;-79
2022/12/14 14:04:13;;;;;;;0.00;0.00;;;;;;;8.09;44.67;99411.72;6177326;22;20084;-78
2022/12/14 14:06:45;;;;;;;0.00;0.00;;;;;;;8.32;43.86;99412.22;6181377;22;20008;-77
2022/12/14 14:09:37;;;;;;;0.00;0.00;;;;;;;8.36;43.81;99419.56;6178699;22;20994;-80
2022/12/14 14:12:03;;;;;;;0.00;0.00;;;;;;;8.32;43.78;99401.34;6208477;22;20000;-78
2022/12/14 14:14:46;;;;;;;0.00;0.00;;;;;;;8.35;43.37;99403.50;6178964;22;20027;-78
2022/12/14 14:17:50;;;;;;;0.00;0.00;;;;;;;8.08;43.63;99407.38;6182198;22;20008;-77